Time;durP1;ratioP1;P1;durP2;ratioP2;P2;SDS_P1;SDS_P2;PMS_P1;PMS_P2;Temp;Humidity;BMP_temperature;BMP_pressure;BME280_temperature;BME280_humidity;BME280_pressure;Samples;Min_cycle;Max_cycle;Signal;HPM_P1;HPM_P2
2021/08/25 00:00:06;;;;;;;2.73;2.23;;;15.10;99.90;;;;;;5053813;28;20444;-52
2021/08/25 00:02:35;;;;;;;2.63;2.43;;;15.10;99.90;;;;;;5049012;28;20927;-52
2021/08/25 00:05:03;;;;;;;2.23;2.03;;;15.10;99.90;;;;;;5051745;28;20858;-52
2021/08/25 00:07:30;;;;;;;2.43;2.23;;;15.00;99.90;;;;;;5050770;28;20468;-52
2021/08/25 00:09:57;;;;;;;2.40;2.20;;;15.00;99.90;;;;;;5051881;28;20487;-52
2021/08/25 00:12:25;;;;;;;2.03;1.93;;;14.90;99.90;;;;;;5051575;28;20444;-52
2021/08/25 00:14:52;;;;;;;2.00;1.90;;;14.90;99.90;;;;;;5053556;28;20539;-52
2021/08/25 00:17:22;;;;;;;2.40;2.20;;;14.90;99.90;;;;;;5052852;28;20456;-52
2021/08/25 00:19:50;;;;;;;2.20;2.10;;;14.80;99.90;;;;;;5053505;28;20475;-52
2021/08/25 00:22:17;;;;;;;2.60;2.40;;;14.80;99.90;;;;;;5053470;28;20459;-52
2021/08/25 00:24:44;;;;;;;2.53;2.33;;;14.80;99.90;;;;;;5053142;28;20487;-51
2021/08/25 00:27:11;;;;;;;2.73;2.53;;;14.80;99.90;;;;;;5042051;28;20448;-53
2021/08/25 00:29:38;;;;;;;3.43;2.50;;;14.80;99.90;;;;;;5053598;28;20448;-52
2021/08/25 00:32:06;;;;;;;2.47;2.27;;;14.50;99.90;;;;;;5052266;28;20448;-53
2021/08/25 00:34:33;;;;;;;2.63;2.43;;;14.50;99.90;;;;;;5052977;28;20455;-52
2021/08/25 00:37:01;;;;;;;2.60;2.40;;;14.50;99.90;;;;;;5051237;28;20456;-52
2021/08/25 00:39:28;;;;;;;8.40;2.83;;;14.60;99.90;;;;;;5053357;28;20444;-52
2021/08/25 00:41:55;;;;;;;3.00;2.70;;;14.50;99.90;;;;;;5052270;28;20447;-52
2021/08/25 00:44:22;;;;;;;2.50;2.30;;;14.30;99.90;;;;;;5052676;28;20497;-51
2021/08/25 00:46:50;;;;;;;2.80;2.60;;;14.30;99.90;;;;;;5051826;28;20999;-53
2021/08/25 00:49:18;;;;;;;3.00;2.50;;;14.40;99.90;;;;;;5053401;28;20497;-52
2021/08/25 00:51:49;;;;;;;5.40;3.10;;;14.40;99.90;;;;;;5052792;28;20569;-52
2021/08/25 00:54:19;;;;;;;3.00;2.70;;;14.40;99.90;;;;;;5052610;28;20486;-52
2021/08/25 00:56:48;;;;;;;3.30;3.00;;;14.40;99.90;;;;;;5052295;28;20498;-53
2021/08/25 00:59:17;;;;;;;2.80;2.50;;;14.40;99.90;;;;;;5051690;28;20498;-52
2021/08/25 01:01:53;;;;;;;3.40;2.90;;;14.40;99.90;;;;;;5052490;28;20451;-52
2021/08/25 01:04:29;;;;;;;3.10;2.80;;;14.40;99.90;;;;;;5052722;28;20455;-51
2021/08/25 01:06:58;;;;;;;3.30;3.00;;;14.40;99.90;;;;;;5052560;28;20454;-52
2021/08/25 01:09:27;;;;;;;3.53;3.23;;;14.30;99.90;;;;;;5051688;28;20817;-52
2021/08/25 01:11:57;;;;;;;3.40;3.10;;;14.20;99.90;;;;;;5051332;28;20553;-52
2021/08/25 01:14:25;;;;;;;4.40;2.97;;;14.20;99.90;;;;;;5052517;28;20456;-52
2021/08/25 01:16:53;;;;;;;3.00;2.70;;;14.00;99.90;;;;;;5051850;28;20486;-52
2021/08/25 01:19:22;;;;;;;2.97;2.73;;;14.00;99.90;;;;;;5052503;28;20976;-52
2021/08/25 01:21:49;;;;;;;3.80;3.40;;;14.00;99.90;;;;;;5052184;28;20871;-51
2021/08/25 01:24:18;;;;;;;2.87;2.60;;;14.00;99.90;;;;;;5052173;28;20452;-52
2021/08/25 01:26:48;;;;;;;2.53;2.33;;;14.00;99.90;;;;;;5052069;28;20475;-52
2021/08/25 01:29:27;;;;;;;3.80;3.20;;;14.10;99.90;;;;;;5052201;28;20448;-52
2021/08/25 01:31:55;;;;;;;4.47;3.40;;;14.20;99.90;;;;;;5051581;28;20479;-51
2021/08/25 01:34:22;;;;;;;3.80;3.40;;;14.10;99.90;;;;;;5051309;28;20463;-52
2021/08/25 01:36:53;;;;;;;3.03;2.83;;;14.00;99.90;;;;;;5051483;28;20864;-52
2021/08/25 01:39:20;;;;;;;3.10;2.80;;;14.00;99.90;;;;;;5052019;28;20455;-52
2021/08/25 01:41:48;;;;;;;3.10;2.57;;;13.90;99.90;;;;;;5051540;28;20451;-52
2021/08/25 01:44:15;;;;;;;3.27;2.97;;;13.80;99.90;;;;;;5051746;28;20448;-52
2021/08/25 01:46:44;;;;;;;3.00;2.70;;;13.90;99.90;;;;;;5050876;28;20472;-53
2021/08/25 01:49:14;;;;;;;3.53;2.87;;;13.90;99.90;;;;;;5051216;28;20485;-52
2021/08/25 01:51:42;;;;;;;2.60;2.40;;;13.90;99.90;;;;;;5051879;28;20537;-52
2021/08/25 01:54:11;;;;;;;5.90;3.17;;;13.70;99.90;;;;;;5050702;28;20456;-52
2021/08/25 01:56:39;;;;;;;3.23;2.90;;;13.70;99.90;;;;;;5048237;28;21050;-52
2021/08/25 01:59:06;;;;;;;3.13;2.83;;;13.70;99.90;;;;;;5049199;28;20506;-52
2021/08/25 02:01:33;;;;;;;3.20;2.60;;;13.60;99.90;;;;;;5050658;28;20444;-52
2021/08/25 02:04:02;;;;;;;3.40;3.07;;;13.60;99.90;;;;;;5051232;28;20444;-52
2021/08/25 02:06:29;;;;;;;3.10;2.80;;;13.60;99.90;;;;;;5051893;28;20507;-52
2021/08/25 02:08:57;;;;;;;3.23;2.93;;;13.70;99.90;;;;;;5051397;28;20452;-52
2021/08/25 02:11:24;;;;;;;3.40;3.10;;;13.50;99.90;;;;;;5050502;28;20533;-51
2021/08/25 02:13:51;;;;;;;3.73;3.40;;;13.40;99.90;;;;;;5051233;28;20501;-52
2021/08/25 02:16:18;;;;;;;4.37;2.90;;;13.30;99.90;;;;;;5050723;28;20471;-52
2021/08/25 02:18:45;;;;;;;4.80;3.30;;;13.30;99.90;;;;;;5051856;28;20505;-52
2021/08/25 02:21:14;;;;;;;3.00;2.70;;;13.40;99.90;;;;;;5050582;28;20440;-52
2021/08/25 02:23:41;;;;;;;5.03;3.17;;;13.40;99.90;;;;;;5050814;28;20443;-52
2021/08/25 02:26:15;;;;;;;4.30;2.83;;;13.40;99.90;;;;;;5051141;28;20518;-51
2021/08/25 02:28:43;;;;;;;3.70;3.27;;;13.40;99.90;;;;;;5051086;28;20455;-52
2021/08/25 02:31:10;;;;;;;3.77;3.23;;;13.40;99.90;;;;;;5050244;28;20541;-52
2021/08/25 02:33:37;;;;;;;3.30;3.00;;;13.40;99.90;;;;;;5050662;28;20962;-52
2021/08/25 02:36:04;;;;;;;3.73;2.73;;;13.40;99.90;;;;;;5070153;22;20483;-56
2021/08/25 02:38:33;;;;;;;4.43;3.40;;;13.40;99.90;;;;;;5031581;28;20449;-57
2021/08/25 02:41:00;;;;;;;5.93;3.03;;;13.40;99.90;;;;;;5032496;28;20445;-57
2021/08/25 02:43:27;;;;;;;2.77;2.57;;;13.30;99.90;;;;;;5031414;28;20448;-57
2021/08/25 02:45:54;;;;;;;4.20;3.00;;;13.40;99.90;;;;;;5043311;28;20538;-57
2021/08/25 02:48:21;;;;;;;3.87;3.47;;;13.30;99.90;;;;;;5050095;28;20501;-57
2021/08/25 02:50:48;;;;;;;3.77;3.33;;;13.30;99.90;;;;;;5045138;28;20537;-57
2021/08/25 02:53:16;;;;;;;8.33;3.60;;;13.40;99.90;;;;;;5034877;28;20804;-57
2021/08/25 02:55:45;;;;;;;3.37;3.07;;;13.40;99.90;;;;;;5036448;28;20468;-57
2021/08/25 02:58:12;;;;;;;4.10;3.27;;;13.30;99.90;;;;;;5042559;28;20452;-57
2021/08/25 03:00:39;;;;;;;3.50;3.20;;;13.40;99.90;;;;;;5053349;28;20448;-57
2021/08/25 03:03:06;;;;;;;3.73;3.33;;;13.40;99.90;;;;;;5055339;28;20451;-57
2021/08/25 03:05:33;;;;;;;3.80;3.37;;;13.40;99.90;;;;;;5041909;28;20511;-57
2021/08/25 03:08:00;;;;;;;4.57;3.40;;;13.40;99.90;;;;;;5035557;28;20456;-57
2021/08/25 03:10:27;;;;;;;3.40;3.10;;;13.30;99.90;;;;;;5026572;28;20510;-57
2021/08/25 03:12:56;;;;;;;3.43;3.00;;;13.30;99.90;;;;;;5034858;28;20488;-57
2021/08/25 03:15:23;;;;;;;4.40;3.63;;;13.40;99.90;;;;;;5036102;28;20529;-57
2021/08/25 03:17:50;;;;;;;3.33;3.03;;;13.40;99.90;;;;;;5034898;28;20506;-57
2021/08/25 03:20:17;;;;;;;4.10;3.20;;;13.30;99.90;;;;;;5039850;28;20525;-57
2021/08/25 03:22:44;;;;;;;3.80;3.03;;;13.30;99.90;;;;;;5041572;28;20944;-57
2021/08/25 03:25:11;;;;;;;3.70;3.40;;;13.00;99.90;;;;;;5047221;28;20472;-57
2021/08/25 03:27:38;;;;;;;3.70;3.30;;;13.10;99.90;;;;;;5034750;28;20452;-57
2021/08/25 03:30:08;;;;;;;4.43;3.40;;;13.20;99.90;;;;;;5035043;28;20448;-57
2021/08/25 03:32:35;;;;;;;4.63;3.13;;;13.20;99.90;;;;;;5034741;28;20484;-57
2021/08/25 03:35:02;;;;;;;4.70;3.37;;;13.30;99.90;;;;;;5034812;28;20449;-57
2021/08/25 03:37:29;;;;;;;4.90;3.97;;;13.30;99.90;;;;;;5038404;28;20494;-57
2021/08/25 03:39:56;;;;;;;4.40;3.73;;;13.00;99.90;;;;;;5034803;28;20935;-57
2021/08/25 03:42:27;;;;;;;4.33;3.60;;;13.00;99.90;;;;;;5034870;28;20502;-57
2021/08/25 03:44:54;;;;;;;4.73;4.10;;;13.00;99.90;;;;;;5034490;28;20451;-57
2021/08/25 03:47:22;;;;;;;5.53;4.67;;;13.10;99.90;;;;;;5034690;28;21019;-57
2021/08/25 03:49:49;;;;;;;4.90;4.40;;;13.10;99.90;;;;;;5034787;28;20586;-57
2021/08/25 03:52:16;;;;;;;4.83;4.10;;;13.00;99.90;;;;;;5039298;28;20999;-57
2021/08/25 03:54:43;;;;;;;4.43;3.57;;;13.10;99.90;;;;;;5034771;28;20452;-57
2021/08/25 03:57:10;;;;;;;6.03;3.90;;;13.10;99.90;;;;;;5033838;28;20468;-57
2021/08/25 03:59:37;;;;;;;3.97;3.30;;;13.00;99.90;;;;;;5034107;28;20440;-57
2021/08/25 04:02:04;;;;;;;2.93;2.73;;;13.00;99.90;;;;;;5034368;28;20448;-57
2021/08/25 04:04:33;;;;;;;3.90;3.50;;;13.10;99.90;;;;;;5034196;28;20946;-57
2021/08/25 04:07:00;;;;;;;3.53;3.20;;;13.00;99.90;;;;;;5047595;28;20497;-57
2021/08/25 04:09:27;;;;;;;4.17;3.60;;;13.00;99.90;;;;;;5034177;28;20506;-57
2021/08/25 04:11:54;;;;;;;5.63;3.80;;;13.00;99.90;;;;;;5014657;28;20485;-57
2021/08/25 04:14:21;;;;;;;3.83;3.27;;;13.10;99.90;;;;;;5043123;28;20506;-57
2021/08/25 04:16:48;;;;;;;3.47;3.17;;;13.10;99.90;;;;;;5044210;28;20522;-57
2021/08/25 04:19:15;;;;;;;3.90;3.60;;;13.00;99.90;;;;;;5034336;28;20460;-57
2021/08/25 04:21:43;;;;;;;7.60;4.33;;;13.10;99.90;;;;;;5034386;28;20445;-57
2021/08/25 04:24:11;;;;;;;4.00;3.60;;;13.00;99.90;;;;;;5033853;28;20449;-57
2021/08/25 04:26:38;;;;;;;4.50;3.80;;;12.90;99.90;;;;;;5034966;28;20530;-57
2021/08/25 04:29:05;;;;;;;4.23;3.30;;;12.90;99.90;;;;;;5034754;28;20444;-57
2021/08/25 04:31:32;;;;;;;4.77;3.63;;;12.90;99.90;;;;;;5033608;28;20550;-57
2021/08/25 04:33:59;;;;;;;4.07;3.30;;;13.00;99.90;;;;;;5034167;28;20440;-57
2021/08/25 04:36:26;;;;;;;4.93;4.03;;;13.00;99.90;;;;;;5034625;28;20483;-57
2021/08/25 04:38:54;;;;;;;5.00;3.60;;;13.00;99.90;;;;;;5036920;28;20487;-58
2021/08/25 04:41:22;;;;;;;4.17;3.63;;;12.90;99.90;;;;;;5030225;28;20452;-57
2021/08/25 04:43:49;;;;;;;3.83;3.33;;;12.90;99.90;;;;;;5033699;28;20448;-57
2021/08/25 04:46:17;;;;;;;4.27;3.87;;;12.90;99.90;;;;;;5033468;28;20476;-58
2021/08/25 04:48:45;;;;;;;4.53;3.63;;;12.90;99.90;;;;;;5035595;28;20522;-57
2021/08/25 04:51:12;;;;;;;4.27;3.60;;;13.00;99.90;;;;;;5033781;28;20498;-57
2021/08/25 04:53:39;;;;;;;4.93;4.00;;;13.00;99.90;;;;;;5033308;28;20453;-57
2021/08/25 04:56:08;;;;;;;3.60;3.30;;;12.90;99.90;;;;;;5033506;28;20488;-57
2021/08/25 04:58:35;;;;;;;4.50;3.57;;;13.00;99.90;;;;;;5033641;28;20861;-57
2021/08/25 05:01:02;;;;;;;3.60;3.30;;;13.00;99.90;;;;;;5040556;28;20452;-57
2021/08/25 05:03:29;;;;;;;4.03;3.60;;;12.90;99.90;;;;;;5035609;28;20456;-57
2021/08/25 05:05:56;;;;;;;4.07;3.67;;;12.90;99.90;;;;;;5037232;28;20463;-57
2021/08/25 05:08:23;;;;;;;4.07;3.63;;;13.00;99.90;;;;;;5043414;28;20463;-57
2021/08/25 05:10:50;;;;;;;3.67;3.30;;;13.10;99.90;;;;;;5041279;28;20473;-57
2021/08/25 05:13:19;;;;;;;4.00;3.60;;;13.10;99.90;;;;;;5031511;28;20503;-57
2021/08/25 05:15:46;;;;;;;6.50;3.90;;;13.10;99.90;;;;;;5032048;28;20889;-57
2021/08/25 05:18:13;;;;;;;4.60;3.70;;;13.10;99.90;;;;;;5040465;28;20451;-57
2021/08/25 05:20:40;;;;;;;4.57;3.87;;;13.10;99.90;;;;;;5028907;28;20452;-57
2021/08/25 05:23:08;;;;;;;4.00;3.50;;;13.20;99.90;;;;;;5032000;28;20449;-57
2021/08/25 05:25:35;;;;;;;4.90;3.80;;;13.40;99.90;;;;;;5032533;28;20769;-57
2021/08/25 05:28:03;;;;;;;10.03;4.37;;;13.50;99.90;;;;;;5032316;28;20448;-56
2021/08/25 05:30:35;;;;;;;4.50;3.27;;;13.50;99.90;;;;;;5030770;28;20942;-57
2021/08/25 05:33:04;;;;;;;4.00;3.20;;;13.30;99.90;;;;;;5033417;28;20534;-57
2021/08/25 05:35:32;;;;;;;4.93;3.53;;;13.30;99.90;;;;;;5041710;28;20506;-57
2021/08/25 05:38:02;;;;;;;5.03;4.20;;;13.40;99.90;;;;;;5041266;28;20440;-57
2021/08/25 05:40:30;;;;;;;3.60;3.30;;;13.50;99.90;;;;;;5033421;28;20534;-57
2021/08/25 05:42:58;;;;;;;7.27;3.87;;;13.50;99.90;;;;;;5032164;28;20458;-57
2021/08/25 05:45:27;;;;;;;4.20;3.40;;;13.60;99.90;;;;;;5030476;28;20476;-57
2021/08/25 05:47:57;;;;;;;4.20;3.80;;;13.60;99.90;;;;;;5035505;28;20544;-57
2021/08/25 05:50:26;;;;;;;3.70;3.40;;;13.50;99.90;;;;;;5033030;28;20958;-57
2021/08/25 05:52:54;;;;;;;4.30;3.40;;;13.50;99.90;;;;;;5030962;28;21171;-57
2021/08/25 05:55:21;;;;;;;4.57;3.90;;;13.50;99.90;;;;;;5031368;28;20530;-57
2021/08/25 05:57:48;;;;;;;6.73;4.57;;;13.50;99.90;;;;;;5038394;28;20439;-57
2021/08/25 06:00:17;;;;;;;10.37;3.90;;;13.40;99.90;;;;;;5035305;28;20470;-57
2021/08/25 06:02:44;;;;;;;5.70;4.40;;;13.40;99.90;;;;;;5031027;28;20487;-57
2021/08/25 06:05:14;;;;;;;8.43;4.20;;;13.80;99.90;;;;;;5030949;28;21059;-57
2021/08/25 06:07:41;;;;;;;7.93;4.70;;;14.70;99.90;;;;;;5032298;28;20946;-56
2021/08/25 06:10:10;;;;;;;5.90;4.17;;;15.90;99.90;;;;;;5031355;28;20448;-58
2021/08/25 06:12:37;;;;;;;3.90;3.50;;;16.30;99.90;;;;;;5031446;28;20941;-57
2021/08/25 06:15:05;;;;;;;5.20;3.60;;;16.40;99.90;;;;;;5031689;28;20506;-57
2021/08/25 06:17:32;;;;;;;4.00;3.60;;;16.50;99.90;;;;;;5031374;28;20453;-57
2021/08/25 06:19:59;;;;;;;3.53;2.70;;;16.50;99.90;;;;;;5031218;28;20448;-57
2021/08/25 06:22:31;;;;;;;3.30;3.00;;;16.20;99.90;;;;;;5031013;28;20461;-57
2021/08/25 06:24:58;;;;;;;3.00;2.70;;;16.20;99.90;;;;;;5030959;28;20805;-57
2021/08/25 06:27:26;;;;;;;4.93;2.80;;;16.10;99.90;;;;;;5031573;28;20510;-57
2021/08/25 06:29:53;;;;;;;3.40;3.10;;;16.00;99.90;;;;;;5031503;28;20449;-57
2021/08/25 06:32:24;;;;;;;4.10;2.80;;;16.20;99.90;;;;;;5030892;28;21092;-57
2021/08/25 06:34:51;;;;;;;4.90;2.77;;;16.20;99.90;;;;;;5031525;28;20457;-57
2021/08/25 06:37:18;;;;;;;3.33;2.43;;;16.50;99.90;;;;;;5031174;28;20453;-57
2021/08/25 06:39:46;;;;;;;2.93;2.63;;;16.60;99.90;;;;;;5031853;28;20975;-57
2021/08/25 06:42:13;;;;;;;3.87;2.97;;;16.80;99.90;;;;;;5030956;28;20572;-57
2021/08/25 06:44:40;;;;;;;3.13;2.83;;;17.20;99.90;;;;;;5029747;28;20506;-57
2021/08/25 06:47:07;;;;;;;2.97;2.73;;;17.50;99.90;;;;;;5031062;28;20530;-57
2021/08/25 06:49:34;;;;;;;3.43;3.07;;;17.80;99.90;;;;;;5031086;28;20456;-57
2021/08/25 06:52:01;;;;;;;2.93;2.73;;;18.00;99.90;;;;;;5030642;28;21110;-58
2021/08/25 06:54:28;;;;;;;3.63;3.00;;;18.40;99.90;;;;;;5031026;28;20449;-57
2021/08/25 06:56:57;;;;;;;3.00;2.50;;;19.20;99.90;;;;;;5011397;28;20480;-58
2021/08/25 06:59:24;;;;;;;4.77;2.40;;;20.40;99.90;;;;;;5024818;28;20518;-58
2021/08/25 07:01:51;;;;;;;6.47;2.83;;;21.10;99.90;;;;;;5029668;28;20515;-58
2021/08/25 07:04:18;;;;;;;2.77;2.57;;;21.70;99.90;;;;;;5029099;28;20441;-58
2021/08/25 07:06:45;;;;;;;2.70;2.50;;;22.40;99.90;;;;;;5029094;28;20468;-57
2021/08/25 07:09:13;;;;;;;2.90;2.30;;;23.00;99.90;;;;;;5029624;28;20452;-59
2021/08/25 07:11:41;;;;;;;2.60;2.47;;;23.50;99.90;;;;;;5028017;28;20464;-58
2021/08/25 07:14:10;;;;;;;2.77;2.43;;;23.40;99.90;;;;;;5029935;28;20520;-57
2021/08/25 07:16:37;;;;;;;2.50;2.10;;;23.40;99.90;;;;;;5027154;28;20492;-58
2021/08/25 07:19:04;;;;;;;2.50;2.30;;;23.70;99.90;;;;;;5029577;28;20492;-59
2021/08/25 07:21:32;;;;;;;2.50;2.40;;;24.30;99.90;;;;;;5026229;28;20856;-59
2021/08/25 07:24:00;;;;;;;2.53;2.30;;;24.80;99.90;;;;;;5026440;28;20508;-58
2021/08/25 07:26:27;;;;;;;2.00;1.90;;;24.00;99.90;;;;;;5033132;28;20487;-59
2021/08/25 07:28:54;;;;;;;2.23;2.10;;;23.30;99.90;;;;;;5026210;28;20476;-58
2021/08/25 07:31:23;;;;;;;2.60;2.20;;;23.10;99.90;;;;;;5027539;28;20472;-58
2021/08/25 07:33:50;;;;;;;2.33;2.10;;;23.10;99.90;;;;;;5028685;28;20480;-58
2021/08/25 07:36:18;;;;;;;2.50;2.30;;;23.50;99.90;;;;;;5031886;28;20499;-58
2021/08/25 07:38:45;;;;;;;2.20;2.10;;;23.40;99.90;;;;;;5033312;28;20522;-58
2021/08/25 07:41:12;;;;;;;2.60;2.10;;;22.90;99.90;;;;;;5032660;28;20958;-58
2021/08/25 07:43:39;;;;;;;1.90;1.80;;;22.80;99.90;;;;;;5034293;28;20444;-58
2021/08/25 07:46:06;;;;;;;2.63;1.80;;;22.90;99.90;;;;;;5029668;28;20487;-58
2021/08/25 07:48:34;;;;;;;2.00;1.90;;;23.20;99.90;;;;;;5033828;28;21036;-58
2021/08/25 07:51:08;;;;;;;2.23;2.03;;;23.40;99.90;;;;;;5033439;28;20495;-58
2021/08/25 07:53:35;;;;;;;7.53;2.20;;;22.80;99.90;;;;;;5033114;28;20488;-58
2021/08/25 07:56:02;;;;;;;2.20;2.00;;;22.10;99.90;;;;;;5030414;28;20894;-58
2021/08/25 07:58:29;;;;;;;2.07;1.97;;;22.10;99.90;;;;;;5033873;28;20494;-58
2021/08/25 08:00:56;;;;;;;2.37;2.03;;;21.90;99.90;;;;;;5032581;28;20471;-58
2021/08/25 08:03:23;;;;;;;1.70;1.60;;;21.80;99.90;;;;;;5028576;28;20472;-58
2021/08/25 08:05:51;;;;;;;3.40;1.77;;;22.10;99.90;;;;;;5025187;28;20522;-58
2021/08/25 08:08:18;;;;;;;2.37;2.20;;;22.80;99.90;;;;;;5026113;28;20554;-58
2021/08/25 08:10:45;;;;;;;2.20;2.10;;;22.90;99.90;;;;;;5025130;28;20537;-59
2021/08/25 08:13:12;;;;;;;2.30;2.10;;;22.50;99.90;;;;;;5024469;28;21374;-58
2021/08/25 08:15:39;;;;;;;2.23;2.10;;;22.30;99.90;;;;;;5029292;28;20542;-60
2021/08/25 08:18:13;;;;;;;2.60;2.40;;;22.10;99.90;;;;;;5033032;28;20473;-60
2021/08/25 08:20:40;;;;;;;2.57;2.20;;;22.00;99.90;;;;;;5033013;28;20500;-60
2021/08/25 08:23:08;;;;;;;9.30;4.10;;;22.40;99.90;;;;;;5029592;28;20538;-59
2021/08/25 08:25:36;;;;;;;22.13;6.13;;;22.50;99.90;;;;;;5031031;28;21432;-60
2021/08/25 08:28:03;;;;;;;5.10;3.00;;;23.20;99.90;;;;;;5032968;28;20468;-60
2021/08/25 08:30:31;;;;;;;3.43;2.83;;;21.70;99.90;;;;;;5031993;28;20466;-60
2021/08/25 08:32:58;;;;;;;10.00;3.63;;;21.90;99.90;;;;;;5031890;28;20534;-60
2021/08/25 08:35:25;;;;;;;1.97;1.87;;;22.50;99.90;;;;;;5032435;28;20476;-61
2021/08/25 08:37:52;;;;;;;2.40;2.20;;;23.10;99.90;;;;;;5033098;28;20449;-61
2021/08/25 08:40:20;;;;;;;2.00;1.90;;;24.00;99.90;;;;;;5031863;28;20449;-61
2021/08/25 08:42:47;;;;;;;1.80;1.70;;;24.80;99.90;;;;;;5031968;28;20523;-61
2021/08/25 08:45:16;;;;;;;2.23;2.03;;;25.00;99.90;;;;;;5031903;28;21068;-62
2021/08/25 08:47:44;;;;;;;2.33;1.90;;;24.40;99.90;;;;;;5028263;28;20518;-61
2021/08/25 08:50:12;;;;;;;2.07;1.97;;;24.40;99.90;;;;;;5032947;28;20452;-61
2021/08/25 08:52:39;;;;;;;2.20;2.10;;;23.50;99.90;;;;;;5031452;28;20468;-61
2021/08/25 08:55:07;;;;;;;4.23;2.70;;;22.10;99.90;;;;;;5032528;28;20461;-61
2021/08/25 08:57:35;;;;;;;2.20;2.10;;;21.20;99.90;;;;;;5029486;28;20468;-61
2021/08/25 09:00:02;;;;;;;2.73;2.40;;;22.00;99.90;;;;;;5032963;28;20448;-62
2021/08/25 09:02:40;;;;;;;2.13;1.97;;;22.80;99.90;;;;;;5029103;28;20468;-61
2021/08/25 09:05:25;;;;;;;2.17;2.00;;;23.00;99.90;;;;;;5027469;28;20917;-61
2021/08/25 09:07:55;;;;;;;3.00;2.20;;;23.10;99.90;;;;;;5030119;28;20956;-61
2021/08/25 09:10:25;;;;;;;2.00;1.90;;;23.50;99.90;;;;;;5031281;28;20469;-61
2021/08/25 09:12:54;;;;;;;2.33;2.10;;;23.80;99.90;;;;;;5030497;28;20558;-62
2021/08/25 09:15:23;;;;;;;3.00;1.77;;;23.70;99.90;;;;;;5038179;28;20480;-62
2021/08/25 09:17:58;;;;;;;2.30;2.10;;;24.10;99.90;;;;;;5031145;28;20554;-62
2021/08/25 09:20:25;;;;;;;1.97;1.87;;;25.10;99.90;;;;;;5031945;28;20498;-62
2021/08/25 09:23:11;;;;;;;1.70;1.60;;;25.30;99.90;;;;;;5031432;28;20456;-62
2021/08/25 09:25:38;;;;;;;2.33;2.23;;;25.70;99.90;;;;;;5031279;28;20911;-61
2021/08/25 09:28:09;;;;;;;2.27;2.17;;;24.40;99.90;;;;;;5026073;28;20464;-61
2021/08/25 09:30:55;;;;;;;1.97;1.87;;;23.40;99.90;;;;;;5025040;28;20461;-61
2021/08/25 09:33:24;;;;;;;2.00;1.90;;;21.40;99.90;;;;;;5020191;28;21195;-61
2021/08/25 09:35:52;;;;;;;2.30;2.20;;;20.90;99.90;;;;;;5038841;28;20472;-60
2021/08/25 09:38:20;;;;;;;2.60;2.40;;;21.00;99.90;;;;;;5025578;28;20480;-61
2021/08/25 09:40:48;;;;;;;2.10;2.00;;;22.00;99.90;;;;;;5022619;28;20465;-61
2021/08/25 09:43:31;;;;;;;2.20;2.10;;;23.10;99.90;;;;;;5025733;28;20527;-61
2021/08/25 09:46:16;;;;;;;2.33;2.17;;;22.10;99.90;;;;;;5022932;28;20870;-62
2021/08/25 09:48:45;;;;;;;2.13;2.03;;;21.00;99.90;;;;;;5026771;28;20460;-61
2021/08/25 09:51:13;;;;;;;6.03;2.40;;;20.90;99.90;;;;;;5027595;28;20481;-61
2021/08/25 09:53:41;;;;;;;3.00;2.17;;;22.00;99.90;;;;;;5022051;28;20472;-61
2021/08/25 09:56:22;;;;;;;2.10;2.00;;;22.60;99.90;;;;;;5024602;28;20484;-61
2021/08/25 09:58:51;;;;;;;2.57;2.37;;;23.20;99.90;;;;;;5024062;28;20534;-60
2021/08/25 10:01:19;;;;;;;1.90;1.80;;;22.60;99.90;;;;;;5025550;28;20472;-61
2021/08/25 10:03:46;;;;;;;2.70;2.50;;;23.30;99.90;;;;;;5023889;28;20491;-60
2021/08/25 10:06:16;;;;;;;2.10;2.00;;;23.00;99.90;;;;;;5021458;28;20484;-61
2021/08/25 10:08:44;;;;;;;2.23;2.10;;;23.50;99.90;;;;;;5022819;28;20990;-61
2021/08/25 10:11:11;;;;;;;2.90;2.70;;;22.90;99.90;;;;;;5023977;28;20874;-61
2021/08/25 10:13:39;;;;;;;2.40;2.20;;;23.40;99.90;;;;;;5027138;28;20490;-62
2021/08/25 10:16:11;;;;;;;2.57;2.37;;;24.20;99.90;;;;;;5025362;28;20481;-61
2021/08/25 10:18:40;;;;;;;2.17;2.03;;;23.40;99.90;;;;;;5027696;28;20463;-61
2021/08/25 10:21:41;;;;;;;8.30;1.90;;;22.90;99.90;;;;;;5028456;28;20461;-61
2021/08/25 10:24:08;;;;;;;1.97;1.87;;;22.80;99.90;;;;;;5022705;28;20588;-62
2021/08/25 10:27:06;;;;;;;2.30;2.20;;;23.00;99.90;;;;;;5021673;28;20544;-61
2021/08/25 10:29:34;;;;;;;1.90;1.80;;;22.70;99.90;;;;;;5021183;28;20467;-61
2021/08/25 10:32:16;;;;;;;2.17;2.07;;;22.40;99.90;;;;;;5021173;28;20460;-61
2021/08/25 10:34:44;;;;;;;2.50;2.00;;;22.40;99.90;;;;;;5022419;28;20557;-61
2021/08/25 10:37:30;;;;;;;2.57;2.37;;;23.00;99.90;;;;;;5022788;28;20986;-61
2021/08/25 10:40:02;;;;;;;2.60;2.40;;;22.70;99.90;;;;;;5021772;28;20925;-61
2021/08/25 10:42:47;;;;;;;2.50;2.40;;;22.90;99.90;;;;;;5028012;28;20492;-61
2021/08/25 10:45:14;;;;;;;2.80;2.60;;;22.60;99.90;;;;;;5026023;28;20538;-61
2021/08/25 10:48:02;;;;;;;2.90;2.70;;;22.80;99.90;;;;;;5023648;28;21248;-61
2021/08/25 10:50:49;;;;;;;2.97;2.73;;;22.40;99.90;;;;;;5022134;28;20468;-61
2021/08/25 10:53:41;;;;;;;2.40;2.20;;;22.40;99.90;;;;;;5021608;28;20464;-61
2021/08/25 10:56:10;;;;;;;2.13;2.03;;;22.50;99.90;;;;;;5024363;28;21005;-61
2021/08/25 10:58:48;;;;;;;2.40;2.30;;;22.40;99.90;;;;;;5028931;28;20958;-61
2021/08/25 11:01:28;;;;;;;2.00;1.90;;;22.60;99.90;;;;;;5024417;28;21027;-61
2021/08/25 11:03:58;;;;;;;2.50;2.30;;;22.80;99.90;;;;;;5017100;28;20813;-61
2021/08/25 11:06:46;;;;;;;2.60;2.40;;;22.50;99.90;;;;;;5017237;28;20554;-60
2021/08/25 11:09:22;;;;;;;3.30;3.00;;;22.40;99.90;;;;;;5024209;28;20520;-60
2021/08/25 11:11:55;;;;;;;2.20;2.10;;;22.30;99.90;;;;;;5025340;28;20460;-61
2021/08/25 11:14:28;;;;;;;2.73;2.53;;;22.40;99.90;;;;;;5025508;28;20534;-60
2021/08/25 11:16:57;;;;;;;2.70;2.50;;;22.30;99.90;;;;;;5024462;28;20530;-60
2021/08/25 11:19:30;;;;;;;4.30;2.90;;;21.80;99.90;;;;;;5024857;28;20549;-60
2021/08/25 11:22:00;;;;;;;2.63;2.43;;;21.70;99.90;;;;;;5025807;28;20464;-60
2021/08/25 11:24:35;;;;;;;2.70;2.50;;;22.10;99.90;;;;;;5027930;28;20464;-61
2021/08/25 11:27:02;;;;;;;4.83;2.50;;;22.30;99.90;;;;;;5025763;28;20475;-61
2021/08/25 11:29:29;;;;;;;2.33;2.10;;;22.70;99.90;;;;;;5028806;28;20461;-60
2021/08/25 11:32:02;;;;;;;2.70;2.50;;;22.90;99.90;;;;;;5031211;28;20460;-61
2021/08/25 11:34:31;;;;;;;2.97;2.77;;;22.60;99.90;;;;;;5029202;28;20530;-61
2021/08/25 11:37:00;;;;;;;2.57;2.40;;;22.00;99.90;;;;;;5025860;28;20545;-60
2021/08/25 11:39:28;;;;;;;2.90;2.70;;;22.00;99.90;;;;;;5028088;28;20475;-60
2021/08/25 11:41:56;;;;;;;3.17;2.60;;;22.20;99.90;;;;;;5025445;28;20619;-61
2021/08/25 11:44:41;;;;;;;2.40;2.30;;;22.40;99.90;;;;;;5025651;28;20525;-61
2021/08/25 11:47:17;;;;;;;2.57;2.40;;;22.60;99.90;;;;;;5025277;28;20483;-60
2021/08/25 11:49:47;;;;;;;2.20;2.10;;;22.30;99.90;;;;;;5025178;28;20471;-60
2021/08/25 11:52:14;;;;;;;2.73;1.97;;;22.20;99.90;;;;;;5030316;28;20510;-60
2021/08/25 11:54:42;;;;;;;2.20;2.10;;;22.50;99.90;;;;;;5029300;28;20510;-60
2021/08/25 11:57:11;;;;;;;2.17;2.07;;;22.70;99.90;;;;;;5028072;28;20488;-60
2021/08/25 11:59:58;;;;;;;2.57;2.30;;;23.00;99.90;;;;;;5025107;28;20551;-61
2021/08/25 12:02:25;;;;;;;2.23;2.13;;;23.30;99.90;;;;;;5025896;28;20460;-61
2021/08/25 12:04:54;;;;;;;2.47;2.20;;;23.20;99.90;;;;;;5028483;28;20461;-61
2021/08/25 12:07:21;;;;;;;1.93;1.83;;;23.30;99.90;;;;;;5025194;28;20983;-62
2021/08/25 12:09:48;;;;;;;2.20;2.10;;;22.60;99.90;;;;;;5030200;28;20903;-61
2021/08/25 12:12:15;;;;;;;2.40;2.30;;;21.80;99.90;;;;;;5031058;28;20518;-61
2021/08/25 12:14:52;;;;;;;2.17;2.07;;;21.80;99.90;;;;;;5037409;28;20668;-61
2021/08/25 12:17:20;;;;;;;2.67;2.47;;;21.90;99.90;;;;;;5031986;28;20464;-62
2021/08/25 12:19:59;;;;;;;2.50;2.30;;;21.80;99.90;;;;;;5033881;28;21067;-60
2021/08/25 12:22:31;;;;;;;2.40;2.30;;;21.70;99.90;;;;;;5033717;28;20456;-61
2021/08/25 12:25:00;;;;;;;2.60;2.40;;;21.90;99.90;;;;;;5033459;28;20457;-60
2021/08/25 12:27:45;;;;;;;3.17;2.30;;;21.80;99.90;;;;;;5033565;28;21021;-61
2021/08/25 12:30:14;;;;;;;2.50;2.20;;;21.90;99.90;;;;;;5033068;28;20499;-60
2021/08/25 12:32:44;;;;;;;2.23;2.13;;;22.40;99.90;;;;;;5016833;28;20540;-60
2021/08/25 12:35:23;;;;;;;2.23;2.13;;;22.10;99.90;;;;;;5013347;28;20493;-61
2021/08/25 12:37:51;;;;;;;2.30;2.17;;;22.20;99.90;;;;;;5013594;28;21009;-62
2021/08/25 12:40:22;;;;;;;2.53;2.23;;;22.30;99.90;;;;;;5013824;28;20453;-61
2021/08/25 12:42:50;;;;;;;2.53;2.30;;;22.60;99.90;;;;;;5014622;28;20468;-61
2021/08/25 12:45:18;;;;;;;2.60;2.40;;;22.90;99.90;;;;;;5032955;28;20460;-61
2021/08/25 12:47:47;;;;;;;2.33;2.20;;;22.60;99.90;;;;;;5034180;28;20807;-61
2021/08/25 12:50:16;;;;;;;2.90;2.70;;;22.80;99.90;;;;;;5034526;28;20451;-61
2021/08/25 12:52:43;;;;;;;2.60;2.40;;;22.40;99.90;;;;;;5033735;28;20490;-61
2021/08/25 12:55:10;;;;;;;2.73;2.20;;;22.20;99.90;;;;;;5032439;28;20476;-62